sensor_id;sensor_type;location;lat;lon;timestamp;P1;durP1;ratioP1;P2;durP2;ratioP2
15990;SDS011;8100;50.994;4.538;2022-12-24T00:01:05;30.60;;;3.35;;
15990;SDS011;8100;50.994;4.538;2022-12-24T00:03:52;20.17;;;3.03;;
15990;SDS011;8100;50.994;4.538;2022-12-24T00:06:40;20.98;;;3.17;;
15990;SDS011;8100;50.994;4.538;2022-12-24T00:09:27;22.35;;;3.40;;
15990;SDS011;8100;50.994;4.538;2022-12-24T00:12:14;21.08;;;3.40;;
15990;SDS011;8100;50.994;4.538;2022-12-24T00:15:01;25.73;;;3.13;;
15990;SDS011;8100;50.994;4.538;2022-12-24T00:17:50;24.33;;;3.35;;
15990;SDS011;8100;50.994;4.538;2022-12-24T00:20:37;18.15;;;3.00;;
15990;SDS011;8100;50.994;4.538;2022-12-24T00:23:24;18.85;;;3.17;;
15990;SDS011;8100;50.994;4.538;2022-12-24T00:26:11;19.63;;;3.13;;
15990;SDS011;8100;50.994;4.538;2022-12-24T00:28:59;21.55;;;3.15;;
15990;SDS011;8100;50.994;4.538;2022-12-24T00:31:46;20.35;;;3.42;;
15990;SDS011;8100;50.994;4.538;2022-12-24T00:34:34;17.63;;;3.03;;
15990;SDS011;8100;50.994;4.538;2022-12-24T00:37:21;19.85;;;2.78;;
15990;SDS011;8100;50.994;4.538;2022-12-24T00:40:09;22.70;;;3.75;;
15990;SDS011;8100;50.994;4.538;2022-12-24T00:42:56;26.27;;;3.67;;
15990;SDS011;8100;50.994;4.538;2022-12-24T00:45:44;19.67;;;3.25;;
15990;SDS011;8100;50.994;4.538;2022-12-24T00:48:32;18.55;;;2.60;;
15990;SDS011;8100;50.994;4.538;2022-12-24T00:51:21;27.50;;;3.90;;
15990;SDS011;8100;50.994;4.538;2022-12-24T00:54:09;20.05;;;3.15;;
15990;SDS011;8100;50.994;4.538;2022-12-24T00:56:57;22.80;;;3.35;;
15990;SDS011;8100;50.994;4.538;2022-12-24T00:59:44;21.38;;;2.65;;
15990;SDS011;8100;50.994;4.538;2022-12-24T01:02:31;21.55;;;3.40;;
15990;SDS011;8100;50.994;4.538;2022-12-24T01:05:18;16.50;;;2.90;;
15990;SDS011;8100;50.994;4.538;2022-12-24T01:08:08;17.25;;;3.35;;
15990;SDS011;8100;50.994;4.538;2022-12-24T01:10:55;18.17;;;2.85;;
15990;SDS011;8100;50.994;4.538;2022-12-24T01:13:43;23.88;;;3.03;;
15990;SDS011;8100;50.994;4.538;2022-12-24T01:16:30;14.02;;;2.78;;
15990;SDS011;8100;50.994;4.538;2022-12-24T01:19:17;17.63;;;2.90;;
15990;SDS011;8100;50.994;4.538;2022-12-24T01:22:04;21.63;;;3.13;;
15990;SDS011;8100;50.994;4.538;2022-12-24T01:24:53;17.80;;;2.75;;
15990;SDS011;8100;50.994;4.538;2022-12-24T01:27:40;16.48;;;2.72;;
15990;SDS011;8100;50.994;4.538;2022-12-24T01:30:27;16.02;;;2.60;;
15990;SDS011;8100;50.994;4.538;2022-12-24T01:33:14;13.65;;;2.47;;
15990;SDS011;8100;50.994;4.538;2022-12-24T01:36:01;15.80;;;2.58;;
15990;SDS011;8100;50.994;4.538;2022-12-24T01:38:49;12.80;;;2.50;;
15990;SDS011;8100;50.994;4.538;2022-12-24T01:41:37;11.30;;;2.40;;
15990;SDS011;8100;50.994;4.538;2022-12-24T01:44:42;15.93;;;2.80;;
15990;SDS011;8100;50.994;4.538;2022-12-24T01:47:33;16.60;;;2.38;;
15990;SDS011;8100;50.994;4.538;2022-12-24T01:50:20;20.63;;;2.90;;
15990;SDS011;8100;50.994;4.538;2022-12-24T01:53:08;16.05;;;2.63;;
15990;SDS011;8100;50.994;4.538;2022-12-24T01:55:57;15.18;;;2.28;;
15990;SDS011;8100;50.994;4.538;2022-12-24T01:58:47;13.32;;;2.20;;
15990;SDS011;8100;50.994;4.538;2022-12-24T02:01:38;13.45;;;2.75;;
15990;SDS011;8100;50.994;4.538;2022-12-24T02:04:27;13.63;;;2.53;;
15990;SDS011;8100;50.994;4.538;2022-12-24T02:07:18;14.30;;;2.67;;
15990;SDS011;8100;50.994;4.538;2022-12-24T02:10:07;13.63;;;3.00;;
15990;SDS011;8100;50.994;4.538;2022-12-24T02:12:57;17.90;;;2.72;;
15990;SDS011;8100;50.994;4.538;2022-12-24T02:15:50;12.88;;;2.45;;
15990;SDS011;8100;50.994;4.538;2022-12-24T02:18:51;11.75;;;2.22;;
15990;SDS011;8100;50.994;4.538;2022-12-24T02:21:46;10.68;;;2.35;;
15990;SDS011;8100;50.994;4.538;2022-12-24T02:24:47;13.23;;;2.63;;
15990;SDS011;8100;50.994;4.538;2022-12-24T02:28:04;15.70;;;2.47;;
15990;SDS011;8100;50.994;4.538;2022-12-24T02:31:03;13.55;;;2.80;;
15990;SDS011;8100;50.994;4.538;2022-12-24T02:33:58;11.85;;;2.30;;
15990;SDS011;8100;50.994;4.538;2022-12-24T02:36:51;13.27;;;2.90;;
15990;SDS011;8100;50.994;4.538;2022-12-24T02:39:44;12.82;;;2.47;;
15990;SDS011;8100;50.994;4.538;2022-12-24T02:42:35;15.00;;;2.80;;
15990;SDS011;8100;50.994;4.538;2022-12-24T02:45:26;16.20;;;2.85;;
15990;SDS011;8100;50.994;4.538;2022-12-24T02:48:17;18.30;;;3.22;;
15990;SDS011;8100;50.994;4.538;2022-12-24T02:51:08;17.92;;;3.00;;
15990;SDS011;8100;50.994;4.538;2022-12-24T02:53:56;15.40;;;2.88;;
15990;SDS011;8100;50.994;4.538;2022-12-24T02:56:47;21.00;;;3.00;;
15990;SDS011;8100;50.994;4.538;2022-12-24T02:59:50;16.55;;;2.67;;
15990;SDS011;8100;50.994;4.538;2022-12-24T03:02:50;18.77;;;2.75;;
15990;SDS011;8100;50.994;4.538;2022-12-24T03:05:55;25.15;;;2.90;;
15990;SDS011;8100;50.994;4.538;2022-12-24T03:08:48;16.58;;;2.67;;
15990;SDS011;8100;50.994;4.538;2022-12-24T03:11:40;18.60;;;2.97;;
15990;SDS011;8100;50.994;4.538;2022-12-24T03:14:34;19.42;;;3.10;;
15990;SDS011;8100;50.994;4.538;2022-12-24T03:17:22;19.98;;;2.83;;
15990;SDS011;8100;50.994;4.538;2022-12-24T03:20:09;16.00;;;2.78;;
15990;SDS011;8100;50.994;4.538;2022-12-24T03:22:59;14.20;;;2.55;;
15990;SDS011;8100;50.994;4.538;2022-12-24T03:25:47;15.63;;;3.25;;
15990;SDS011;8100;50.994;4.538;2022-12-24T03:28:37;16.15;;;3.25;;
15990;SDS011;8100;50.994;4.538;2022-12-24T03:31:26;17.30;;;2.83;;
15990;SDS011;8100;50.994;4.538;2022-12-24T03:34:24;16.30;;;3.30;;
15990;SDS011;8100;50.994;4.538;2022-12-24T03:37:11;14.50;;;2.78;;
15990;SDS011;8100;50.994;4.538;2022-12-24T03:40:00;21.60;;;3.13;;
15990;SDS011;8100;50.994;4.538;2022-12-24T03:42:47;10.88;;;2.78;;
15990;SDS011;8100;50.994;4.538;2022-12-24T03:45:34;14.65;;;2.85;;
15990;SDS011;8100;50.994;4.538;2022-12-24T03:48:21;15.25;;;3.05;;
15990;SDS011;8100;50.994;4.538;2022-12-24T03:51:13;12.82;;;2.28;;
15990;SDS011;8100;50.994;4.538;2022-12-24T03:54:03;13.40;;;2.50;;
15990;SDS011;8100;50.994;4.538;2022-12-24T03:56:51;16.35;;;2.85;;
15990;SDS011;8100;50.994;4.538;2022-12-24T03:59:38;16.33;;;2.85;;
15990;SDS011;8100;50.994;4.538;2022-12-24T04:02:26;16.45;;;2.53;;
15990;SDS011;8100;50.994;4.538;2022-12-24T04:05:13;15.27;;;2.50;;
15990;SDS011;8100;50.994;4.538;2022-12-24T04:08:01;14.10;;;2.47;;
15990;SDS011;8100;50.994;4.538;2022-12-24T04:10:49;16.75;;;3.08;;
15990;SDS011;8100;50.994;4.538;2022-12-24T04:13:37;17.65;;;3.00;;
15990;SDS011;8100;50.994;4.538;2022-12-24T04:16:24;13.20;;;2.90;;
15990;SDS011;8100;50.994;4.538;2022-12-24T04:19:11;16.38;;;2.83;;
15990;SDS011;8100;50.994;4.538;2022-12-24T04:21:58;18.05;;;3.03;;
15990;SDS011;8100;50.994;4.538;2022-12-24T04:24:46;16.35;;;3.20;;
15990;SDS011;8100;50.994;4.538;2022-12-24T04:27:33;18.08;;;3.20;;
15990;SDS011;8100;50.994;4.538;2022-12-24T04:30:21;17.42;;;3.13;;
15990;SDS011;8100;50.994;4.538;2022-12-24T04:33:08;18.85;;;3.00;;
15990;SDS011;8100;50.994;4.538;2022-12-24T04:35:56;22.48;;;2.83;;
15990;SDS011;8100;50.994;4.538;2022-12-24T04:38:43;16.63;;;3.95;;
15990;SDS011;8100;50.994;4.538;2022-12-24T04:41:31;21.40;;;3.30;;
15990;SDS011;8100;50.994;4.538;2022-12-24T04:44:18;22.60;;;3.40;;
15990;SDS011;8100;50.994;4.538;2022-12-24T04:47:07;17.33;;;3.35;;
15990;SDS011;8100;50.994;4.538;2022-12-24T04:49:55;18.00;;;3.22;;
15990;SDS011;8100;50.994;4.538;2022-12-24T04:52:42;16.90;;;2.92;;
15990;SDS011;8100;50.994;4.538;2022-12-24T04:55:29;15.98;;;2.85;;
15990;SDS011;8100;50.994;4.538;2022-12-24T04:58:16;19.70;;;3.20;;
15990;SDS011;8100;50.994;4.538;2022-12-24T05:01:03;18.52;;;3.03;;
15990;SDS011;8100;50.994;4.538;2022-12-24T05:03:52;20.15;;;3.45;;
15990;SDS011;8100;50.994;4.538;2022-12-24T05:06:41;22.05;;;3.10;;
15990;SDS011;8100;50.994;4.538;2022-12-24T05:09:28;23.23;;;3.53;;
15990;SDS011;8100;50.994;4.538;2022-12-24T05:12:15;21.05;;;3.50;;
15990;SDS011;8100;50.994;4.538;2022-12-24T05:15:03;17.92;;;2.80;;
15990;SDS011;8100;50.994;4.538;2022-12-24T05:17:50;17.23;;;3.40;;
15990;SDS011;8100;50.994;4.538;2022-12-24T05:20:40;16.00;;;3.42;;
15990;SDS011;8100;50.994;4.538;2022-12-24T05:23:27;15.23;;;2.70;;
15990;SDS011;8100;50.994;4.538;2022-12-24T05:26:33;23.73;;;2.95;;
15990;SDS011;8100;50.994;4.538;2022-12-24T05:29:22;21.73;;;3.42;;
15990;SDS011;8100;50.994;4.538;2022-12-24T05:32:09;21.45;;;3.35;;
15990;SDS011;8100;50.994;4.538;2022-12-24T05:34:56;22.20;;;3.55;;
15990;SDS011;8100;50.994;4.538;2022-12-24T05:37:45;23.60;;;3.22;;
15990;SDS011;8100;50.994;4.538;2022-12-24T05:40:32;17.35;;;2.85;;
15990;SDS011;8100;50.994;4.538;2022-12-24T05:43:19;19.33;;;2.92;;
15990;SDS011;8100;50.994;4.538;2022-12-24T05:46:07;15.77;;;2.90;;
15990;SDS011;8100;50.994;4.538;2022-12-24T05:48:56;20.60;;;3.65;;
15990;SDS011;8100;50.994;4.538;2022-12-24T05:51:43;13.15;;;2.40;;
15990;SDS011;8100;50.994;4.538;2022-12-24T05:57:20;22.90;;;3.20;;
15990;SDS011;8100;50.994;4.538;2022-12-24T06:00:07;14.90;;;2.83;;
15990;SDS011;8100;50.994;4.538;2022-12-24T06:02:56;15.25;;;2.75;;
15990;SDS011;8100;50.994;4.538;2022-12-24T06:05:43;21.92;;;3.33;;
15990;SDS011;8100;50.994;4.538;2022-12-24T06:08:31;16.13;;;3.10;;
15990;SDS011;8100;50.994;4.538;2022-12-24T06:11:20;17.02;;;3.30;;
15990;SDS011;8100;50.994;4.538;2022-12-24T06:14:10;18.10;;;3.05;;
15990;SDS011;8100;50.994;4.538;2022-12-24T06:16:57;22.77;;;3.25;;
15990;SDS011;8100;50.994;4.538;2022-12-24T06:19:44;19.00;;;3.30;;
15990;SDS011;8100;50.994;4.538;2022-12-24T06:22:31;17.52;;;3.22;;
15990;SDS011;8100;50.994;4.538;2022-12-24T06:25:18;18.27;;;2.95;;
15990;SDS011;8100;50.994;4.538;2022-12-24T06:28:07;21.08;;;2.97;;
15990;SDS011;8100;50.994;4.538;2022-12-24T06:30:54;16.92;;;2.78;;
15990;SDS011;8100;50.994;4.538;2022-12-24T06:33:41;20.65;;;3.15;;
15990;SDS011;8100;50.994;4.538;2022-12-24T06:36:28;20.15;;;3.25;;
15990;SDS011;8100;50.994;4.538;2022-12-24T06:39:16;18.70;;;2.88;;
15990;SDS011;8100;50.994;4.538;2022-12-24T06:42:03;19.92;;;3.08;;
15990;SDS011;8100;50.994;4.538;2022-12-24T06:44:51;20.58;;;3.35;;
15990;SDS011;8100;50.994;4.538;2022-12-24T06:47:38;19.27;;;3.60;;
15990;SDS011;8100;50.994;4.538;2022-12-24T06:50:26;23.23;;;3.42;;
15990;SDS011;8100;50.994;4.538;2022-12-24T06:53:13;18.00;;;3.28;;
15990;SDS011;8100;50.994;4.538;2022-12-24T06:56:00;14.43;;;3.28;;
15990;SDS011;8100;50.994;4.538;2022-12-24T06:58:48;22.73;;;3.70;;
15990;SDS011;8100;50.994;4.538;2022-12-24T07:01:36;19.42;;;3.13;;
15990;SDS011;8100;50.994;4.538;2022-12-24T07:04:24;22.75;;;3.08;;
15990;SDS011;8100;50.994;4.538;2022-12-24T07:07:11;19.05;;;3.08;;
15990;SDS011;8100;50.994;4.538;2022-12-24T07:09:58;21.23;;;3.45;;
15990;SDS011;8100;50.994;4.538;2022-12-24T07:12:45;23.65;;;3.50;;
15990;SDS011;8100;50.994;4.538;2022-12-24T07:15:33;18.55;;;2.85;;
15990;SDS011;8100;50.994;4.538;2022-12-24T07:18:22;25.00;;;3.47;;
15990;SDS011;8100;50.994;4.538;2022-12-24T07:21:09;21.10;;;3.63;;
15990;SDS011;8100;50.994;4.538;2022-12-24T07:23:56;17.50;;;2.67;;
15990;SDS011;8100;50.994;4.538;2022-12-24T07:26:43;18.95;;;3.35;;
15990;SDS011;8100;50.994;4.538;2022-12-24T07:29:31;19.38;;;3.03;;
15990;SDS011;8100;50.994;4.538;2022-12-24T07:32:18;18.52;;;3.35;;
15990;SDS011;8100;50.994;4.538;2022-12-24T07:35:07;21.15;;;3.65;;
15990;SDS011;8100;50.994;4.538;2022-12-24T07:37:55;20.35;;;3.38;;
15990;SDS011;8100;50.994;4.538;2022-12-24T07:40:42;20.30;;;3.90;;
15990;SDS011;8100;50.994;4.538;2022-12-24T07:43:31;19.73;;;3.17;;
15990;SDS011;8100;50.994;4.538;2022-12-24T07:46:18;20.77;;;3.72;;
15990;SDS011;8100;50.994;4.538;2022-12-24T07:49:05;21.77;;;3.60;;
15990;SDS011;8100;50.994;4.538;2022-12-24T07:51:54;25.83;;;3.38;;
15990;SDS011;8100;50.994;4.538;2022-12-24T07:54:41;17.27;;;3.15;;
15990;SDS011;8100;50.994;4.538;2022-12-24T07:57:28;18.13;;;3.03;;
15990;SDS011;8100;50.994;4.538;2022-12-24T08:00:16;24.50;;;3.05;;
15990;SDS011;8100;50.994;4.538;2022-12-24T08:03:03;21.13;;;3.00;;
15990;SDS011;8100;50.994;4.538;2022-12-24T08:05:51;21.60;;;3.67;;
15990;SDS011;8100;50.994;4.538;2022-12-24T08:08:39;26.02;;;3.22;;
15990;SDS011;8100;50.994;4.538;2022-12-24T08:11:26;22.65;;;3.08;;
15990;SDS011;8100;50.994;4.538;2022-12-24T08:14:14;21.45;;;3.15;;
15990;SDS011;8100;50.994;4.538;2022-12-24T08:17:01;17.70;;;3.40;;
15990;SDS011;8100;50.994;4.538;2022-12-24T08:19:48;21.08;;;3.05;;
15990;SDS011;8100;50.994;4.538;2022-12-24T08:22:35;19.05;;;3.03;;
15990;SDS011;8100;50.994;4.538;2022-12-24T08:25:23;25.80;;;3.85;;
15990;SDS011;8100;50.994;4.538;2022-12-24T08:28:11;22.27;;;3.60;;
15990;SDS011;8100;50.994;4.538;2022-12-24T08:30:58;20.48;;;3.22;;
15990;SDS011;8100;50.994;4.538;2022-12-24T08:33:46;27.63;;;3.17;;
15990;SDS011;8100;50.994;4.538;2022-12-24T08:36:33;15.27;;;3.10;;
15990;SDS011;8100;50.994;4.538;2022-12-24T08:39:20;15.82;;;3.25;;
15990;SDS011;8100;50.994;4.538;2022-12-24T08:42:09;26.35;;;3.78;;
15990;SDS011;8100;50.994;4.538;2022-12-24T08:44:56;25.40;;;3.60;;
15990;SDS011;8100;50.994;4.538;2022-12-24T08:47:43;20.00;;;3.60;;
15990;SDS011;8100;50.994;4.538;2022-12-24T08:50:31;25.55;;;3.30;;
15990;SDS011;8100;50.994;4.538;2022-12-24T08:53:18;20.73;;;3.58;;
15990;SDS011;8100;50.994;4.538;2022-12-24T08:56:06;17.88;;;3.13;;
15990;SDS011;8100;50.994;4.538;2022-12-24T08:58:55;18.25;;;3.42;;
15990;SDS011;8100;50.994;4.538;2022-12-24T09:01:42;19.50;;;3.10;;
15990;SDS011;8100;50.994;4.538;2022-12-24T09:04:30;25.17;;;4.07;;
15990;SDS011;8100;50.994;4.538;2022-12-24T09:07:17;16.92;;;3.33;;
15990;SDS011;8100;50.994;4.538;2022-12-24T09:10:04;18.92;;;3.55;;
15990;SDS011;8100;50.994;4.538;2022-12-24T09:12:52;22.48;;;3.40;;
15990;SDS011;8100;50.994;4.538;2022-12-24T09:15:41;27.00;;;3.55;;
15990;SDS011;8100;50.994;4.538;2022-12-24T09:18:29;20.80;;;3.20;;
15990;SDS011;8100;50.994;4.538;2022-12-24T09:21:16;19.50;;;3.78;;
15990;SDS011;8100;50.994;4.538;2022-12-24T09:24:04;26.25;;;3.65;;
15990;SDS011;8100;50.994;4.538;2022-12-24T09:26:52;27.73;;;3.67;;
15990;SDS011;8100;50.994;4.538;2022-12-24T09:29:39;25.05;;;3.63;;
15990;SDS011;8100;50.994;4.538;2022-12-24T09:32:27;23.67;;;3.47;;
15990;SDS011;8100;50.994;4.538;2022-12-24T09:35:14;19.17;;;3.47;;
15990;SDS011;8100;50.994;4.538;2022-12-24T09:38:02;24.05;;;3.35;;
15990;SDS011;8100;50.994;4.538;2022-12-24T09:40:49;19.13;;;3.50;;
15990;SDS011;8100;50.994;4.538;2022-12-24T09:43:37;22.90;;;3.35;;
15990;SDS011;8100;50.994;4.538;2022-12-24T09:46:25;23.23;;;3.47;;
15990;SDS011;8100;50.994;4.538;2022-12-24T09:49:19;27.77;;;3.92;;
15990;SDS011;8100;50.994;4.538;2022-12-24T09:52:09;24.60;;;3.83;;
15990;SDS011;8100;50.994;4.538;2022-12-24T09:55:02;20.05;;;3.40;;
15990;SDS011;8100;50.994;4.538;2022-12-24T09:57:53;21.27;;;4.07;;
15990;SDS011;8100;50.994;4.538;2022-12-24T10:00:42;23.52;;;4.15;;
15990;SDS011;8100;50.994;4.538;2022-12-24T10:03:29;15.93;;;3.60;;
15990;SDS011;8100;50.994;4.538;2022-12-24T10:06:19;20.42;;;4.05;;
15990;SDS011;8100;50.994;4.538;2022-12-24T10:09:10;18.77;;;4.25;;
15990;SDS011;8100;50.994;4.538;2022-12-24T10:12:06;20.38;;;3.35;;
15990;SDS011;8100;50.994;4.538;2022-12-24T10:15:02;22.55;;;3.47;;
15990;SDS011;8100;50.994;4.538;2022-12-24T10:18:01;22.10;;;3.60;;
15990;SDS011;8100;50.994;4.538;2022-12-24T10:20:58;28.98;;;3.75;;
15990;SDS011;8100;50.994;4.538;2022-12-24T10:23:52;18.25;;;3.75;;
15990;SDS011;8100;50.994;4.538;2022-12-24T10:26:43;25.55;;;3.80;;
15990;SDS011;8100;50.994;4.538;2022-12-24T10:29:33;24.17;;;4.00;;
15990;SDS011;8100;50.994;4.538;2022-12-24T10:32:25;23.75;;;3.72;;
15990;SDS011;8100;50.994;4.538;2022-12-24T10:35:18;21.35;;;3.70;;
15990;SDS011;8100;50.994;4.538;2022-12-24T10:38:08;21.23;;;3.45;;
15990;SDS011;8100;50.994;4.538;2022-12-24T10:40:57;27.17;;;3.67;;
15990;SDS011;8100;50.994;4.538;2022-12-24T10:43:46;18.25;;;3.20;;
15990;SDS011;8100;50.994;4.538;2022-12-24T10:46:35;23.25;;;3.80;;
15990;SDS011;8100;50.994;4.538;2022-12-24T10:49:28;21.73;;;3.47;;
15990;SDS011;8100;50.994;4.538;2022-12-24T10:52:18;25.40;;;3.42;;
15990;SDS011;8100;50.994;4.538;2022-12-24T10:55:08;28.83;;;4.18;;
15990;SDS011;8100;50.994;4.538;2022-12-24T10:57:59;19.05;;;3.15;;
15990;SDS011;8100;50.994;4.538;2022-12-24T11:00:49;20.85;;;3.45;;
15990;SDS011;8100;50.994;4.538;2022-12-24T11:03:38;22.45;;;3.22;;
15990;SDS011;8100;50.994;4.538;2022-12-24T11:06:26;19.83;;;3.30;;
15990;SDS011;8100;50.994;4.538;2022-12-24T11:09:18;18.90;;;3.22;;
15990;SDS011;8100;50.994;4.538;2022-12-24T11:12:14;22.48;;;3.33;;
15990;SDS011;8100;50.994;4.538;2022-12-24T11:15:14;20.05;;;3.42;;
15990;SDS011;8100;50.994;4.538;2022-12-24T11:18:03;23.77;;;3.47;;
15990;SDS011;8100;50.994;4.538;2022-12-24T11:20:58;24.15;;;3.08;;
15990;SDS011;8100;50.994;4.538;2022-12-24T11:23:47;22.65;;;3.55;;
15990;SDS011;8100;50.994;4.538;2022-12-24T11:26:37;18.70;;;3.45;;
15990;SDS011;8100;50.994;4.538;2022-12-24T11:29:27;18.25;;;3.38;;
15990;SDS011;8100;50.994;4.538;2022-12-24T11:32:16;16.17;;;3.42;;
15990;SDS011;8100;50.994;4.538;2022-12-24T11:35:05;19.05;;;3.40;;
15990;SDS011;8100;50.994;4.538;2022-12-24T11:38:08;25.85;;;3.83;;
15990;SDS011;8100;50.994;4.538;2022-12-24T11:40:57;21.10;;;3.72;;
15990;SDS011;8100;50.994;4.538;2022-12-24T11:43:47;20.02;;;3.78;;
15990;SDS011;8100;50.994;4.538;2022-12-24T11:46:38;21.40;;;3.45;;
15990;SDS011;8100;50.994;4.538;2022-12-24T11:49:28;20.95;;;3.63;;
15990;SDS011;8100;50.994;4.538;2022-12-24T11:52:18;24.98;;;3.90;;
15990;SDS011;8100;50.994;4.538;2022-12-24T11:55:14;18.73;;;4.40;;
15990;SDS011;8100;50.994;4.538;2022-12-24T11:58:04;24.70;;;3.67;;
15990;SDS011;8100;50.994;4.538;2022-12-24T12:01:09;25.98;;;4.22;;
15990;SDS011;8100;50.994;4.538;2022-12-24T12:04:00;20.77;;;3.53;;
15990;SDS011;8100;50.994;4.538;2022-12-24T12:06:53;20.23;;;3.85;;
15990;SDS011;8100;50.994;4.538;2022-12-24T12:09:43;15.40;;;3.28;;
15990;SDS011;8100;50.994;4.538;2022-12-24T12:12:35;19.63;;;3.35;;
15990;SDS011;8100;50.994;4.538;2022-12-24T12:15:27;19.35;;;3.50;;
15990;SDS011;8100;50.994;4.538;2022-12-24T12:18:19;20.58;;;3.28;;
15990;SDS011;8100;50.994;4.538;2022-12-24T12:21:10;26.63;;;3.65;;
15990;SDS011;8100;50.994;4.538;2022-12-24T12:24:04;21.77;;;3.45;;
15990;SDS011;8100;50.994;4.538;2022-12-24T12:27:00;24.58;;;4.00;;
15990;SDS011;8100;50.994;4.538;2022-12-24T12:29:54;19.75;;;4.28;;
15990;SDS011;8100;50.994;4.538;2022-12-24T12:32:47;21.52;;;4.13;;
15990;SDS011;8100;50.994;4.538;2022-12-24T12:35:38;22.38;;;3.72;;
15990;SDS011;8100;50.994;4.538;2022-12-24T12:38:27;22.67;;;4.13;;
15990;SDS011;8100;50.994;4.538;2022-12-24T12:41:25;28.95;;;4.13;;
15990;SDS011;8100;50.994;4.538;2022-12-24T12:44:21;21.17;;;3.65;;
15990;SDS011;8100;50.994;4.538;2022-12-24T12:47:29;18.92;;;4.05;;
15990;SDS011;8100;50.994;4.538;2022-12-24T12:50:24;21.88;;;4.22;;
15990;SDS011;8100;50.994;4.538;2022-12-24T12:53:29;25.33;;;3.92;;
15990;SDS011;8100;50.994;4.538;2022-12-24T12:56:27;18.98;;;3.63;;
15990;SDS011;8100;50.994;4.538;2022-12-24T12:59:17;21.42;;;3.47;;
15990;SDS011;8100;50.994;4.538;2022-12-24T13:02:17;22.63;;;3.83;;
15990;SDS011;8100;50.994;4.538;2022-12-24T13:05:35;24.58;;;3.47;;
15990;SDS011;8100;50.994;4.538;2022-12-24T13:08:47;22.23;;;3.97;;
15990;SDS011;8100;50.994;4.538;2022-12-24T13:11:58;18.20;;;3.47;;
15990;SDS011;8100;50.994;4.538;2022-12-24T13:18:22;25.00;;;4.07;;
15990;SDS011;8100;50.994;4.538;2022-12-24T13:21:20;19.42;;;3.40;;
15990;SDS011;8100;50.994;4.538;2022-12-24T13:24:14;22.77;;;3.95;;
15990;SDS011;8100;50.994;4.538;2022-12-24T13:27:05;21.38;;;4.03;;
15990;SDS011;8100;50.994;4.538;2022-12-24T13:30:00;19.70;;;3.50;;
15990;SDS011;8100;50.994;4.538;2022-12-24T13:32:50;23.67;;;4.10;;
15990;SDS011;8100;50.994;4.538;2022-12-24T13:38:45;14.93;;;3.47;;
15990;SDS011;8100;50.994;4.538;2022-12-24T13:41:37;23.92;;;3.88;;
15990;SDS011;8100;50.994;4.538;2022-12-24T13:44:36;17.90;;;3.83;;
15990;SDS011;8100;50.994;4.538;2022-12-24T13:47:23;21.73;;;3.85;;
15990;SDS011;8100;50.994;4.538;2022-12-24T13:50:17;21.13;;;4.00;;
15990;SDS011;8100;50.994;4.538;2022-12-24T13:53:17;24.10;;;3.92;;
15990;SDS011;8100;50.994;4.538;2022-12-24T13:56:08;16.55;;;3.50;;
15990;SDS011;8100;50.994;4.538;2022-12-24T13:59:10;22.15;;;3.95;;
15990;SDS011;8100;50.994;4.538;2022-12-24T14:02:14;19.17;;;3.83;;
15990;SDS011;8100;50.994;4.538;2022-12-24T14:05:05;19.10;;;3.47;;
15990;SDS011;8100;50.994;4.538;2022-12-24T14:08:03;17.52;;;3.72;;
15990;SDS011;8100;50.994;4.538;2022-12-24T14:10:56;21.83;;;3.83;;
15990;SDS011;8100;50.994;4.538;2022-12-24T14:14:08;18.38;;;4.10;;
15990;SDS011;8100;50.994;4.538;2022-12-24T14:17:14;19.52;;;4.15;;
15990;SDS011;8100;50.994;4.538;2022-12-24T14:20:08;21.45;;;4.40;;
15990;SDS011;8100;50.994;4.538;2022-12-24T14:22:55;21.85;;;4.20;;
15990;SDS011;8100;50.994;4.538;2022-12-24T14:25:43;18.50;;;4.15;;
15990;SDS011;8100;50.994;4.538;2022-12-24T14:28:33;20.77;;;4.50;;
15990;SDS011;8100;50.994;4.538;2022-12-24T14:31:24;21.75;;;4.45;;
15990;SDS011;8100;50.994;4.538;2022-12-24T14:34:13;26.08;;;4.63;;
15990;SDS011;8100;50.994;4.538;2022-12-24T14:37:01;28.17;;;4.65;;
15990;SDS011;8100;50.994;4.538;2022-12-24T14:39:49;24.27;;;3.92;;
15990;SDS011;8100;50.994;4.538;2022-12-24T14:42:42;20.05;;;4.68;;
15990;SDS011;8100;50.994;4.538;2022-12-24T14:45:39;18.95;;;3.72;;
15990;SDS011;8100;50.994;4.538;2022-12-24T14:48:39;15.73;;;3.63;;
15990;SDS011;8100;50.994;4.538;2022-12-24T14:51:34;24.63;;;4.70;;
15990;SDS011;8100;50.994;4.538;2022-12-24T14:54:31;18.83;;;3.80;;
15990;SDS011;8100;50.994;4.538;2022-12-24T14:57:24;19.25;;;4.15;;
15990;SDS011;8100;50.994;4.538;2022-12-24T15:00:17;19.05;;;4.45;;
15990;SDS011;8100;50.994;4.538;2022-12-24T15:03:07;18.73;;;4.28;;
15990;SDS011;8100;50.994;4.538;2022-12-24T15:05:59;22.92;;;4.40;;
15990;SDS011;8100;50.994;4.538;2022-12-24T15:08:50;23.30;;;4.15;;
15990;SDS011;8100;50.994;4.538;2022-12-24T15:11:38;20.52;;;4.53;;
15990;SDS011;8100;50.994;4.538;2022-12-24T15:14:29;24.27;;;4.97;;
15990;SDS011;8100;50.994;4.538;2022-12-24T15:17:24;18.50;;;4.32;;
15990;SDS011;8100;50.994;4.538;2022-12-24T15:20:13;17.52;;;4.32;;
15990;SDS011;8100;50.994;4.538;2022-12-24T15:23:02;18.27;;;4.18;;
15990;SDS011;8100;50.994;4.538;2022-12-24T15:25:51;24.00;;;4.88;;
15990;SDS011;8100;50.994;4.538;2022-12-24T15:28:59;21.58;;;4.28;;
15990;SDS011;8100;50.994;4.538;2022-12-24T15:31:50;21.23;;;4.03;;
15990;SDS011;8100;50.994;4.538;2022-12-24T15:34:39;19.10;;;4.43;;
15990;SDS011;8100;50.994;4.538;2022-12-24T15:37:28;19.77;;;4.70;;
15990;SDS011;8100;50.994;4.538;2022-12-24T15:40:18;21.35;;;5.30;;
15990;SDS011;8100;50.994;4.538;2022-12-24T15:43:09;20.80;;;4.50;;
15990;SDS011;8100;50.994;4.538;2022-12-24T15:45:56;16.73;;;4.53;;
15990;SDS011;8100;50.994;4.538;2022-12-24T15:48:44;25.27;;;4.45;;
15990;SDS011;8100;50.994;4.538;2022-12-24T15:51:32;21.10;;;5.00;;
15990;SDS011;8100;50.994;4.538;2022-12-24T15:54:21;21.83;;;4.88;;
15990;SDS011;8100;50.994;4.538;2022-12-24T15:57:12;26.70;;;5.35;;
15990;SDS011;8100;50.994;4.538;2022-12-24T16:00:19;30.10;;;5.65;;
15990;SDS011;8100;50.994;4.538;2022-12-24T16:03:08;24.90;;;5.38;;
15990;SDS011;8100;50.994;4.538;2022-12-24T16:05:57;24.92;;;5.63;;
15990;SDS011;8100;50.994;4.538;2022-12-24T16:08:45;21.45;;;5.05;;
15990;SDS011;8100;50.994;4.538;2022-12-24T16:11:34;21.52;;;4.93;;
15990;SDS011;8100;50.994;4.538;2022-12-24T16:14:22;19.35;;;5.03;;
15990;SDS011;8100;50.994;4.538;2022-12-24T16:17:14;25.58;;;4.95;;
15990;SDS011;8100;50.994;4.538;2022-12-24T16:20:06;22.85;;;5.20;;
15990;SDS011;8100;50.994;4.538;2022-12-24T16:23:03;27.60;;;5.50;;
15990;SDS011;8100;50.994;4.538;2022-12-24T16:25:50;19.77;;;4.85;;
15990;SDS011;8100;50.994;4.538;2022-12-24T16:28:38;22.88;;;4.88;;
15990;SDS011;8100;50.994;4.538;2022-12-24T16:31:29;30.17;;;5.25;;
15990;SDS011;8100;50.994;4.538;2022-12-24T16:34:19;23.40;;;5.50;;
15990;SDS011;8100;50.994;4.538;2022-12-24T16:37:10;21.27;;;5.35;;
15990;SDS011;8100;50.994;4.538;2022-12-24T16:39:57;23.35;;;5.20;;
15990;SDS011;8100;50.994;4.538;2022-12-24T16:42:45;20.58;;;5.53;;
15990;SDS011;8100;50.994;4.538;2022-12-24T16:45:50;23.38;;;5.50;;
15990;SDS011;8100;50.994;4.538;2022-12-24T16:48:37;19.35;;;5.57;;
15990;SDS011;8100;50.994;4.538;2022-12-24T16:51:26;20.38;;;5.03;;
15990;SDS011;8100;50.994;4.538;2022-12-24T16:54:13;26.27;;;5.28;;
15990;SDS011;8100;50.994;4.538;2022-12-24T16:57:01;17.50;;;4.03;;
15990;SDS011;8100;50.994;4.538;2022-12-24T16:59:48;22.13;;;5.30;;
15990;SDS011;8100;50.994;4.538;2022-12-24T17:02:35;22.00;;;5.32;;
15990;SDS011;8100;50.994;4.538;2022-12-24T17:05:24;22.38;;;5.35;;
15990;SDS011;8100;50.994;4.538;2022-12-24T17:08:13;22.15;;;5.00;;
15990;SDS011;8100;50.994;4.538;2022-12-24T17:11:00;21.65;;;4.63;;
15990;SDS011;8100;50.994;4.538;2022-12-24T17:13:47;21.55;;;5.30;;
15990;SDS011;8100;50.994;4.538;2022-12-24T17:16:34;21.13;;;5.55;;